sensor_id;sensor_type;location;lat;lon;timestamp;P1;durP1;ratioP1;P2;durP2;ratioP2
26435;SDS011;15351;52.408;16.826;2023-04-24T00:01:10;29.10;;;22.30;;
26435;SDS011;15351;52.408;16.826;2023-04-24T00:03:42;26.20;;;22.00;;
26435;SDS011;15351;52.408;16.826;2023-04-24T00:06:17;28.90;;;22.40;;
26435;SDS011;15351;52.408;16.826;2023-04-24T00:08:44;26.30;;;20.80;;
26435;SDS011;15351;52.408;16.826;2023-04-24T00:11:14;23.80;;;18.20;;
26435;SDS011;15351;52.408;16.826;2023-04-24T00:13:41;21.10;;;16.40;;
26435;SDS011;15351;52.408;16.826;2023-04-24T00:16:08;17.60;;;14.20;;
26435;SDS011;15351;52.408;16.826;2023-04-24T00:18:34;16.70;;;13.80;;
26435;SDS011;15351;52.408;16.826;2023-04-24T00:21:09;15.70;;;13.40;;
26435;SDS011;15351;52.408;16.826;2023-04-24T00:23:35;17.60;;;13.20;;
26435;SDS011;15351;52.408;16.826;2023-04-24T00:26:03;17.40;;;12.70;;
26435;SDS011;15351;52.408;16.826;2023-04-24T00:28:43;15.80;;;12.20;;
26435;SDS011;15351;52.408;16.826;2023-04-24T00:31:44;15.70;;;12.40;;
26435;SDS011;15351;52.408;16.826;2023-04-24T00:34:28;15.00;;;12.10;;
26435;SDS011;15351;52.408;16.826;2023-04-24T00:36:55;14.60;;;12.70;;
26435;SDS011;15351;52.408;16.826;2023-04-24T00:39:44;15.70;;;12.80;;
26435;SDS011;15351;52.408;16.826;2023-04-24T00:45:22;14.50;;;11.80;;
26435;SDS011;15351;52.408;16.826;2023-04-24T00:47:55;13.40;;;11.50;;
26435;SDS011;15351;52.408;16.826;2023-04-24T00:50:26;15.20;;;12.60;;
26435;SDS011;15351;52.408;16.826;2023-04-24T00:53:48;15.70;;;12.50;;
26435;SDS011;15351;52.408;16.826;2023-04-24T00:56:25;16.00;;;12.60;;
26435;SDS011;15351;52.408;16.826;2023-04-24T00:59:04;17.30;;;13.00;;
26435;SDS011;15351;52.408;16.826;2023-04-24T01:01:37;15.70;;;13.00;;
26435;SDS011;15351;52.408;16.826;2023-04-24T01:04:17;15.60;;;13.30;;
26435;SDS011;15351;52.408;16.826;2023-04-24T01:07:35;17.80;;;13.50;;
26435;SDS011;15351;52.408;16.826;2023-04-24T01:10:02;18.20;;;13.50;;
26435;SDS011;15351;52.408;16.826;2023-04-24T01:12:29;17.40;;;13.40;;
26435;SDS011;15351;52.408;16.826;2023-04-24T01:14:56;17.00;;;13.00;;
26435;SDS011;15351;52.408;16.826;2023-04-24T01:17:26;15.70;;;12.70;;
26435;SDS011;15351;52.408;16.826;2023-04-24T01:20:12;16.10;;;13.30;;
26435;SDS011;15351;52.408;16.826;2023-04-24T01:22:48;16.80;;;12.80;;
26435;SDS011;15351;52.408;16.826;2023-04-24T01:26:20;17.10;;;13.20;;
26435;SDS011;15351;52.408;16.826;2023-04-24T01:29:13;15.20;;;12.20;;
26435;SDS011;15351;52.408;16.826;2023-04-24T01:32:31;13.60;;;11.60;;
26435;SDS011;15351;52.408;16.826;2023-04-24T01:35:23;14.60;;;11.80;;
26435;SDS011;15351;52.408;16.826;2023-04-24T01:38:43;14.10;;;12.00;;
26435;SDS011;15351;52.408;16.826;2023-04-24T01:41:41;16.10;;;12.40;;
26435;SDS011;15351;52.408;16.826;2023-04-24T01:44:08;15.50;;;12.10;;
26435;SDS011;15351;52.408;16.826;2023-04-24T01:46:40;13.90;;;11.10;;
26435;SDS011;15351;52.408;16.826;2023-04-24T01:49:12;13.80;;;11.20;;
26435;SDS011;15351;52.408;16.826;2023-04-24T01:52:01;12.50;;;10.60;;
26435;SDS011;15351;52.408;16.826;2023-04-24T01:54:30;14.30;;;11.20;;
26435;SDS011;15351;52.408;16.826;2023-04-24T01:57:06;12.80;;;10.80;;
26435;SDS011;15351;52.408;16.826;2023-04-24T01:59:33;15.60;;;11.10;;
26435;SDS011;15351;52.408;16.826;2023-04-24T02:02:09;14.70;;;11.00;;
26435;SDS011;15351;52.408;16.826;2023-04-24T02:08:06;13.60;;;11.20;;
26435;SDS011;15351;52.408;16.826;2023-04-24T02:14:56;12.50;;;10.10;;
26435;SDS011;15351;52.408;16.826;2023-04-24T02:17:35;12.40;;;10.30;;
26435;SDS011;15351;52.408;16.826;2023-04-24T02:20:34;11.40;;;9.60;;
26435;SDS011;15351;52.408;16.826;2023-04-24T02:23:24;11.40;;;10.00;;
26435;SDS011;15351;52.408;16.826;2023-04-24T02:25:51;11.90;;;10.30;;
26435;SDS011;15351;52.408;16.826;2023-04-24T02:28:20;13.20;;;9.50;;
26435;SDS011;15351;52.408;16.826;2023-04-24T02:30:48;13.70;;;9.60;;
26435;SDS011;15351;52.408;16.826;2023-04-24T02:33:19;11.90;;;9.80;;
26435;SDS011;15351;52.408;16.826;2023-04-24T02:35:55;11.30;;;9.50;;
26435;SDS011;15351;52.408;16.826;2023-04-24T02:38:45;11.30;;;9.50;;
26435;SDS011;15351;52.408;16.826;2023-04-24T02:41:24;11.50;;;9.90;;
26435;SDS011;15351;52.408;16.826;2023-04-24T02:44:06;12.30;;;9.90;;
26435;SDS011;15351;52.408;16.826;2023-04-24T02:47:04;12.40;;;9.80;;
26435;SDS011;15351;52.408;16.826;2023-04-24T02:49:38;12.30;;;9.60;;
26435;SDS011;15351;52.408;16.826;2023-04-24T02:52:05;11.70;;;10.10;;
26435;SDS011;15351;52.408;16.826;2023-04-24T02:55:11;12.70;;;10.20;;
26435;SDS011;15351;52.408;16.826;2023-04-24T03:01:03;13.70;;;10.40;;
26435;SDS011;15351;52.408;16.826;2023-04-24T03:03:32;12.40;;;10.00;;
26435;SDS011;15351;52.408;16.826;2023-04-24T03:06:08;12.40;;;10.10;;
26435;SDS011;15351;52.408;16.826;2023-04-24T03:08:38;13.00;;;10.00;;
26435;SDS011;15351;52.408;16.826;2023-04-24T03:11:07;12.70;;;10.60;;
26435;SDS011;15351;52.408;16.826;2023-04-24T03:13:42;14.10;;;11.20;;
26435;SDS011;15351;52.408;16.826;2023-04-24T03:16:11;13.60;;;11.30;;
26435;SDS011;15351;52.408;16.826;2023-04-24T03:18:37;15.90;;;11.90;;
26435;SDS011;15351;52.408;16.826;2023-04-24T03:21:24;14.60;;;11.00;;
26435;SDS011;15351;52.408;16.826;2023-04-24T03:23:56;14.10;;;10.30;;
26435;SDS011;15351;52.408;16.826;2023-04-24T03:26:27;12.30;;;10.60;;
26435;SDS011;15351;52.408;16.826;2023-04-24T03:29:47;14.50;;;10.40;;
26435;SDS011;15351;52.408;16.826;2023-04-24T03:32:17;14.80;;;10.40;;
26435;SDS011;15351;52.408;16.826;2023-04-24T03:34:58;12.60;;;9.80;;
26435;SDS011;15351;52.408;16.826;2023-04-24T03:37:28;11.20;;;9.50;;
26435;SDS011;15351;52.408;16.826;2023-04-24T03:40:25;12.80;;;9.60;;
26435;SDS011;15351;52.408;16.826;2023-04-24T03:43:02;12.00;;;9.60;;
26435;SDS011;15351;52.408;16.826;2023-04-24T03:45:47;10.70;;;9.50;;
26435;SDS011;15351;52.408;16.826;2023-04-24T03:48:14;10.50;;;9.40;;
26435;SDS011;15351;52.408;16.826;2023-04-24T03:50:45;11.50;;;9.90;;
26435;SDS011;15351;52.408;16.826;2023-04-24T03:53:12;11.60;;;9.60;;
26435;SDS011;15351;52.408;16.826;2023-04-24T03:56:01;12.10;;;9.40;;
26435;SDS011;15351;52.408;16.826;2023-04-24T04:01:32;10.90;;;9.20;;
26435;SDS011;15351;52.408;16.826;2023-04-24T04:04:10;13.00;;;10.70;;
26435;SDS011;15351;52.408;16.826;2023-04-24T04:06:41;12.80;;;10.60;;
26435;SDS011;15351;52.408;16.826;2023-04-24T04:09:31;11.80;;;9.70;;
26435;SDS011;15351;52.408;16.826;2023-04-24T04:17:46;10.80;;;9.30;;
26435;SDS011;15351;52.408;16.826;2023-04-24T04:20:50;14.40;;;10.00;;
26435;SDS011;15351;52.408;16.826;2023-04-24T04:24:07;11.30;;;9.50;;
26435;SDS011;15351;52.408;16.826;2023-04-24T04:30:28;11.60;;;9.60;;
26435;SDS011;15351;52.408;16.826;2023-04-24T04:40:55;12.90;;;9.80;;
26435;SDS011;15351;52.408;16.826;2023-04-24T04:43:32;13.30;;;10.10;;
26435;SDS011;15351;52.408;16.826;2023-04-24T04:46:03;12.00;;;9.90;;
26435;SDS011;15351;52.408;16.826;2023-04-24T04:49:07;13.30;;;10.70;;
26435;SDS011;15351;52.408;16.826;2023-04-24T04:51:52;13.10;;;10.20;;
26435;SDS011;15351;52.408;16.826;2023-04-24T04:58:22;12.00;;;10.10;;
26435;SDS011;15351;52.408;16.826;2023-04-24T05:04:25;13.50;;;10.40;;
26435;SDS011;15351;52.408;16.826;2023-04-24T05:07:01;11.70;;;10.10;;
26435;SDS011;15351;52.408;16.826;2023-04-24T05:09:49;12.00;;;10.40;;
26435;SDS011;15351;52.408;16.826;2023-04-24T05:15:24;13.20;;;10.70;;
26435;SDS011;15351;52.408;16.826;2023-04-24T05:22:21;11.40;;;10.00;;
26435;SDS011;15351;52.408;16.826;2023-04-24T05:25:23;12.10;;;10.50;;
26435;SDS011;15351;52.408;16.826;2023-04-24T05:28:15;12.20;;;10.20;;
26435;SDS011;15351;52.408;16.826;2023-04-24T05:31:43;13.70;;;10.70;;
26435;SDS011;15351;52.408;16.826;2023-04-24T05:34:13;14.20;;;10.40;;
26435;SDS011;15351;52.408;16.826;2023-04-24T05:36:53;11.80;;;10.40;;
26435;SDS011;15351;52.408;16.826;2023-04-24T05:39:23;13.20;;;11.00;;
26435;SDS011;15351;52.408;16.826;2023-04-24T05:42:18;14.90;;;11.50;;
26435;SDS011;15351;52.408;16.826;2023-04-24T05:49:02;14.00;;;11.60;;
26435;SDS011;15351;52.408;16.826;2023-04-24T05:51:31;14.90;;;11.50;;
26435;SDS011;15351;52.408;16.826;2023-04-24T05:54:53;16.50;;;12.80;;
26435;SDS011;15351;52.408;16.826;2023-04-24T05:58:20;15.20;;;11.80;;
26435;SDS011;15351;52.408;16.826;2023-04-24T06:01:49;11.90;;;10.30;;
26435;SDS011;15351;52.408;16.826;2023-04-24T06:04:49;13.00;;;11.00;;
26435;SDS011;15351;52.408;16.826;2023-04-24T06:07:40;13.90;;;11.60;;
26435;SDS011;15351;52.408;16.826;2023-04-24T06:10:43;14.80;;;11.00;;
26435;SDS011;15351;52.408;16.826;2023-04-24T06:13:57;13.60;;;10.90;;
26435;SDS011;15351;52.408;16.826;2023-04-24T06:17:19;13.40;;;11.00;;
26435;SDS011;15351;52.408;16.826;2023-04-24T06:20:05;15.50;;;11.40;;
26435;SDS011;15351;52.408;16.826;2023-04-24T06:23:07;13.90;;;12.00;;
26435;SDS011;15351;52.408;16.826;2023-04-24T06:29:17;12.50;;;11.20;;
26435;SDS011;15351;52.408;16.826;2023-04-24T06:32:11;13.50;;;11.80;;
26435;SDS011;15351;52.408;16.826;2023-04-24T06:35:10;16.10;;;12.20;;
26435;SDS011;15351;52.408;16.826;2023-04-24T06:37:41;14.90;;;11.60;;
26435;SDS011;15351;52.408;16.826;2023-04-24T06:40:09;13.00;;;10.80;;
26435;SDS011;15351;52.408;16.826;2023-04-24T07:03:12;16.10;;;12.30;;
26435;SDS011;15351;52.408;16.826;2023-04-24T07:06:04;14.80;;;11.30;;
26435;SDS011;15351;52.408;16.826;2023-04-24T07:09:08;13.60;;;11.20;;
26435;SDS011;15351;52.408;16.826;2023-04-24T07:21:42;12.80;;;11.50;;
26435;SDS011;15351;52.408;16.826;2023-04-24T07:24:54;13.20;;;11.90;;
26435;SDS011;15351;52.408;16.826;2023-04-24T07:31:28;13.40;;;12.00;;
26435;SDS011;15351;52.408;16.826;2023-04-24T07:34:19;13.70;;;12.10;;
26435;SDS011;15351;52.408;16.826;2023-04-24T07:36:46;14.30;;;12.60;;
26435;SDS011;15351;52.408;16.826;2023-04-24T07:39:13;14.40;;;12.90;;
26435;SDS011;15351;52.408;16.826;2023-04-24T07:41:41;16.40;;;13.30;;
26435;SDS011;15351;52.408;16.826;2023-04-24T07:44:27;14.80;;;12.50;;
26435;SDS011;15351;52.408;16.826;2023-04-24T07:47:07;14.00;;;12.20;;
26435;SDS011;15351;52.408;16.826;2023-04-24T07:50:16;13.80;;;12.30;;
26435;SDS011;15351;52.408;16.826;2023-04-24T07:53:34;14.30;;;12.00;;
26435;SDS011;15351;52.408;16.826;2023-04-24T07:56:06;16.00;;;12.60;;
26435;SDS011;15351;52.408;16.826;2023-04-24T07:58:38;15.00;;;11.10;;
26435;SDS011;15351;52.408;16.826;2023-04-24T08:01:04;12.90;;;11.00;;
26435;SDS011;15351;52.408;16.826;2023-04-24T08:03:46;13.90;;;11.20;;
26435;SDS011;15351;52.408;16.826;2023-04-24T08:06:16;13.00;;;11.50;;
26435;SDS011;15351;52.408;16.826;2023-04-24T08:09:02;15.40;;;11.60;;
26435;SDS011;15351;52.408;16.826;2023-04-24T08:11:47;13.40;;;11.20;;
26435;SDS011;15351;52.408;16.826;2023-04-24T08:14:45;13.60;;;11.20;;
26435;SDS011;15351;52.408;16.826;2023-04-24T08:17:39;12.70;;;11.40;;
26435;SDS011;15351;52.408;16.826;2023-04-24T08:20:15;15.90;;;12.10;;
26435;SDS011;15351;52.408;16.826;2023-04-24T08:22:42;15.80;;;11.80;;
26435;SDS011;15351;52.408;16.826;2023-04-24T08:25:12;12.40;;;11.00;;
26435;SDS011;15351;52.408;16.826;2023-04-24T08:27:55;12.80;;;11.50;;
26435;SDS011;15351;52.408;16.826;2023-04-24T08:30:23;13.10;;;11.70;;
26435;SDS011;15351;52.408;16.826;2023-04-24T08:32:49;16.10;;;11.90;;
26435;SDS011;15351;52.408;16.826;2023-04-24T08:35:34;15.60;;;11.60;;
26435;SDS011;15351;52.408;16.826;2023-04-24T08:38:29;13.30;;;11.00;;
26435;SDS011;15351;52.408;16.826;2023-04-24T08:41:02;14.20;;;11.20;;
26435;SDS011;15351;52.408;16.826;2023-04-24T08:44:01;13.20;;;11.20;;
26435;SDS011;15351;52.408;16.826;2023-04-24T08:46:42;14.30;;;11.80;;
26435;SDS011;15351;52.408;16.826;2023-04-24T08:49:12;13.80;;;11.40;;
26435;SDS011;15351;52.408;16.826;2023-04-24T08:51:42;12.90;;;10.60;;
26435;SDS011;15351;52.408;16.826;2023-04-24T08:54:36;12.80;;;10.60;;
26435;SDS011;15351;52.408;16.826;2023-04-24T08:57:31;12.20;;;10.90;;
26435;SDS011;15351;52.408;16.826;2023-04-24T09:00:29;13.50;;;11.40;;
26435;SDS011;15351;52.408;16.826;2023-04-24T09:03:18;15.70;;;11.50;;
26435;SDS011;15351;52.408;16.826;2023-04-24T09:05:53;12.80;;;11.50;;
26435;SDS011;15351;52.408;16.826;2023-04-24T09:08:26;13.30;;;11.40;;
26435;SDS011;15351;52.408;16.826;2023-04-24T09:16:55;12.80;;;11.20;;
26435;SDS011;15351;52.408;16.826;2023-04-24T09:19:27;13.70;;;10.90;;
26435;SDS011;15351;52.408;16.826;2023-04-24T09:21:54;12.10;;;10.80;;
26435;SDS011;15351;52.408;16.826;2023-04-24T09:27:14;14.10;;;11.50;;
26435;SDS011;15351;52.408;16.826;2023-04-24T09:29:56;13.00;;;10.90;;
26435;SDS011;15351;52.408;16.826;2023-04-24T09:32:23;12.20;;;10.50;;
26435;SDS011;15351;52.408;16.826;2023-04-24T09:35:08;13.10;;;10.50;;
26435;SDS011;15351;52.408;16.826;2023-04-24T09:37:50;11.60;;;10.40;;
26435;SDS011;15351;52.408;16.826;2023-04-24T09:40:36;12.20;;;10.30;;
26435;SDS011;15351;52.408;16.826;2023-04-24T09:43:09;12.20;;;10.70;;
26435;SDS011;15351;52.408;16.826;2023-04-24T09:45:38;12.00;;;10.60;;
26435;SDS011;15351;52.408;16.826;2023-04-24T09:48:16;12.20;;;11.00;;
26435;SDS011;15351;52.408;16.826;2023-04-24T09:50:45;13.90;;;11.10;;
26435;SDS011;15351;52.408;16.826;2023-04-24T09:53:30;13.40;;;10.90;;
26435;SDS011;15351;52.408;16.826;2023-04-24T09:56:06;11.70;;;10.50;;
26435;SDS011;15351;52.408;16.826;2023-04-24T09:58:43;12.80;;;11.20;;
26435;SDS011;15351;52.408;16.826;2023-04-24T10:01:31;12.40;;;10.90;;
26435;SDS011;15351;52.408;16.826;2023-04-24T10:04:28;14.00;;;11.90;;
26435;SDS011;15351;52.408;16.826;2023-04-24T10:06:54;13.50;;;12.00;;
26435;SDS011;15351;52.408;16.826;2023-04-24T10:09:26;14.80;;;11.90;;
26435;SDS011;15351;52.408;16.826;2023-04-24T10:12:01;13.00;;;11.10;;
26435;SDS011;15351;52.408;16.826;2023-04-24T10:14:33;12.30;;;11.00;;
26435;SDS011;15351;52.408;16.826;2023-04-24T10:17:33;11.50;;;10.40;;
26435;SDS011;15351;52.408;16.826;2023-04-24T10:20:27;11.90;;;10.70;;
26435;SDS011;15351;52.408;16.826;2023-04-24T10:26:22;12.00;;;10.50;;
26435;SDS011;15351;52.408;16.826;2023-04-24T10:28:48;13.50;;;10.90;;
26435;SDS011;15351;52.408;16.826;2023-04-24T10:31:44;12.00;;;10.80;;
26435;SDS011;15351;52.408;16.826;2023-04-24T10:34:22;10.40;;;9.40;;
26435;SDS011;15351;52.408;16.826;2023-04-24T10:36:58;9.20;;;8.30;;
26435;SDS011;15351;52.408;16.826;2023-04-24T10:39:49;8.80;;;7.90;;
26435;SDS011;15351;52.408;16.826;2023-04-24T10:42:17;9.90;;;8.00;;
26435;SDS011;15351;52.408;16.826;2023-04-24T10:45:38;11.10;;;8.10;;
26435;SDS011;15351;52.408;16.826;2023-04-24T10:48:27;8.00;;;7.10;;
26435;SDS011;15351;52.408;16.826;2023-04-24T10:50:55;8.00;;;7.20;;
26435;SDS011;15351;52.408;16.826;2023-04-24T10:53:37;7.00;;;6.30;;
26435;SDS011;15351;52.408;16.826;2023-04-24T10:56:06;7.30;;;6.10;;
26435;SDS011;15351;52.408;16.826;2023-04-24T10:58:42;6.90;;;6.20;;
26435;SDS011;15351;52.408;16.826;2023-04-24T11:01:25;6.20;;;5.30;;
26435;SDS011;15351;52.408;16.826;2023-04-24T11:04:21;6.30;;;5.70;;
26435;SDS011;15351;52.408;16.826;2023-04-24T11:10:11;7.30;;;6.60;;
26435;SDS011;15351;52.408;16.826;2023-04-24T11:12:59;6.90;;;6.20;;
26435;SDS011;15351;52.408;16.826;2023-04-24T11:15:28;8.40;;;6.90;;
26435;SDS011;15351;52.408;16.826;2023-04-24T11:17:57;7.90;;;6.70;;
26435;SDS011;15351;52.408;16.826;2023-04-24T11:20:29;7.50;;;5.90;;
26435;SDS011;15351;52.408;16.826;2023-04-24T11:23:18;6.50;;;5.20;;
26435;SDS011;15351;52.408;16.826;2023-04-24T11:26:09;4.30;;;3.90;;
26435;SDS011;15351;52.408;16.826;2023-04-24T11:29:11;4.20;;;3.60;;
26435;SDS011;15351;52.408;16.826;2023-04-24T11:32:34;4.70;;;3.50;;
26435;SDS011;15351;52.408;16.826;2023-04-24T11:34:55;3.20;;;2.90;;
26435;SDS011;15351;52.408;16.826;2023-04-24T11:40:41;3.80;;;3.40;;
26435;SDS011;15351;52.408;16.826;2023-04-24T11:43:25;3.70;;;2.90;;
26435;SDS011;15351;52.408;16.826;2023-04-24T11:46:07;4.40;;;3.30;;
26435;SDS011;15351;52.408;16.826;2023-04-24T11:52:28;4.80;;;3.50;;
26435;SDS011;15351;52.408;16.826;2023-04-24T12:01:42;3.80;;;3.40;;
26435;SDS011;15351;52.408;16.826;2023-04-24T12:04:18;4.10;;;3.30;;
26435;SDS011;15351;52.408;16.826;2023-04-24T12:07:02;5.10;;;3.80;;
26435;SDS011;15351;52.408;16.826;2023-04-24T12:13:14;4.10;;;3.70;;
26435;SDS011;15351;52.408;16.826;2023-04-24T12:16:13;4.50;;;4.10;;
26435;SDS011;15351;52.408;16.826;2023-04-24T12:18:41;4.00;;;3.60;;
26435;SDS011;15351;52.408;16.826;2023-04-24T12:23:59;4.40;;;3.00;;
26435;SDS011;15351;52.408;16.826;2023-04-24T12:26:26;3.70;;;2.60;;
26435;SDS011;15351;52.408;16.826;2023-04-24T12:29:07;3.10;;;2.50;;
26435;SDS011;15351;52.408;16.826;2023-04-24T12:31:34;3.80;;;2.10;;
26435;SDS011;15351;52.408;16.826;2023-04-24T12:34:23;3.30;;;2.40;;
26435;SDS011;15351;52.408;16.826;2023-04-24T12:36:52;3.10;;;2.30;;
26435;SDS011;15351;52.408;16.826;2023-04-24T12:39:21;3.80;;;2.90;;
26435;SDS011;15351;52.408;16.826;2023-04-24T12:42:25;3.70;;;2.80;;
26435;SDS011;15351;52.408;16.826;2023-04-24T12:45:04;5.10;;;2.80;;
26435;SDS011;15351;52.408;16.826;2023-04-24T12:47:50;4.20;;;3.00;;
26435;SDS011;15351;52.408;16.826;2023-04-24T12:50:37;3.70;;;2.70;;
26435;SDS011;15351;52.408;16.826;2023-04-24T12:53:14;5.00;;;2.70;;
26435;SDS011;15351;52.408;16.826;2023-04-24T12:55:42;3.40;;;2.90;;
26435;SDS011;15351;52.408;16.826;2023-04-24T12:58:26;3.20;;;2.60;;
26435;SDS011;15351;52.408;16.826;2023-04-24T13:00:53;4.00;;;2.80;;
26435;SDS011;15351;52.408;16.826;2023-04-24T13:03:19;3.50;;;2.70;;
26435;SDS011;15351;52.408;16.826;2023-04-24T13:05:56;4.70;;;3.10;;
26435;SDS011;15351;52.408;16.826;2023-04-24T13:08:24;4.30;;;2.60;;
26435;SDS011;15351;52.408;16.826;2023-04-24T13:10:51;3.20;;;2.70;;
26435;SDS011;15351;52.408;16.826;2023-04-24T13:13:20;3.30;;;2.80;;
26435;SDS011;15351;52.408;16.826;2023-04-24T13:15:47;4.40;;;2.90;;
26435;SDS011;15351;52.408;16.826;2023-04-24T13:18:17;4.00;;;3.30;;
26435;SDS011;15351;52.408;16.826;2023-04-24T13:21:05;6.30;;;3.20;;
26435;SDS011;15351;52.408;16.826;2023-04-24T13:23:36;4.00;;;2.70;;
26435;SDS011;15351;52.408;16.826;2023-04-24T13:26:27;2.50;;;2.10;;
26435;SDS011;15351;52.408;16.826;2023-04-24T13:29:38;3.50;;;2.40;;
26435;SDS011;15351;52.408;16.826;2023-04-24T13:32:43;3.00;;;2.20;;
26435;SDS011;15351;52.408;16.826;2023-04-24T13:35:46;3.00;;;2.40;;
26435;SDS011;15351;52.408;16.826;2023-04-24T13:38:50;5.00;;;2.40;;
26435;SDS011;15351;52.408;16.826;2023-04-24T13:41:17;3.10;;;2.20;;
26435;SDS011;15351;52.408;16.826;2023-04-24T13:44:16;3.20;;;1.90;;
26435;SDS011;15351;52.408;16.826;2023-04-24T13:46:54;2.90;;;1.70;;
26435;SDS011;15351;52.408;16.826;2023-04-24T13:49:46;5.20;;;1.70;;
26435;SDS011;15351;52.408;16.826;2023-04-24T13:52:27;3.20;;;1.60;;
26435;SDS011;15351;52.408;16.826;2023-04-24T13:54:56;2.80;;;1.60;;
26435;SDS011;15351;52.408;16.826;2023-04-24T13:57:53;4.00;;;1.90;;
26435;SDS011;15351;52.408;16.826;2023-04-24T14:00:42;4.80;;;1.90;;
26435;SDS011;15351;52.408;16.826;2023-04-24T14:03:12;3.00;;;1.70;;
26435;SDS011;15351;52.408;16.826;2023-04-24T14:05:40;4.00;;;1.70;;
26435;SDS011;15351;52.408;16.826;2023-04-24T14:08:06;2.00;;;1.60;;
26435;SDS011;15351;52.408;16.826;2023-04-24T14:10:38;2.80;;;1.80;;
26435;SDS011;15351;52.408;16.826;2023-04-24T14:13:09;2.70;;;1.80;;
26435;SDS011;15351;52.408;16.826;2023-04-24T14:16:05;3.70;;;2.00;;
26435;SDS011;15351;52.408;16.826;2023-04-24T14:18:42;2.80;;;1.40;;
26435;SDS011;15351;52.408;16.826;2023-04-24T14:21:08;3.20;;;1.30;;
26435;SDS011;15351;52.408;16.826;2023-04-24T14:24:05;1.50;;;1.00;;
26435;SDS011;15351;52.408;16.826;2023-04-24T14:26:48;1.40;;;1.10;;
26435;SDS011;15351;52.408;16.826;2023-04-24T14:29:15;2.10;;;1.30;;
26435;SDS011;15351;52.408;16.826;2023-04-24T14:31:49;1.90;;;1.20;;
26435;SDS011;15351;52.408;16.826;2023-04-24T14:34:39;3.40;;;1.60;;
26435;SDS011;15351;52.408;16.826;2023-04-24T14:37:09;3.00;;;1.60;;
26435;SDS011;15351;52.408;16.826;2023-04-24T14:39:39;2.30;;;1.80;;
26435;SDS011;15351;52.408;16.826;2023-04-24T14:42:19;4.00;;;1.60;;
26435;SDS011;15351;52.408;16.826;2023-04-24T14:44:46;4.10;;;1.80;;
26435;SDS011;15351;52.408;16.826;2023-04-24T14:47:15;3.00;;;1.60;;
26435;SDS011;15351;52.408;16.826;2023-04-24T14:49:43;2.90;;;1.90;;
26435;SDS011;15351;52.408;16.826;2023-04-24T14:52:12;4.80;;;2.30;;
26435;SDS011;15351;52.408;16.826;2023-04-24T14:54:59;3.30;;;2.30;;
26435;SDS011;15351;52.408;16.826;2023-04-24T14:57:48;4.20;;;2.20;;
26435;SDS011;15351;52.408;16.826;2023-04-24T15:00:19;3.00;;;2.20;;
26435;SDS011;15351;52.408;16.826;2023-04-24T15:03:10;3.90;;;2.40;;
26435;SDS011;15351;52.408;16.826;2023-04-24T15:06:07;4.20;;;2.40;;
26435;SDS011;15351;52.408;16.826;2023-04-24T15:09:09;3.60;;;2.30;;
26435;SDS011;15351;52.408;16.826;2023-04-24T15:11:39;3.60;;;2.30;;
26435;SDS011;15351;52.408;16.826;2023-04-24T15:14:09;3.60;;;2.50;;
26435;SDS011;15351;52.408;16.826;2023-04-24T15:16:41;3.80;;;2.60;;
26435;SDS011;15351;52.408;16.826;2023-04-24T15:19:12;3.90;;;2.60;;
26435;SDS011;15351;52.408;16.826;2023-04-24T15:21:40;4.70;;;2.30;;
26435;SDS011;15351;52.408;16.826;2023-04-24T15:24:16;3.60;;;2.20;;
26435;SDS011;15351;52.408;16.826;2023-04-24T15:29:28;3.30;;;2.00;;
26435;SDS011;15351;52.408;16.826;2023-04-24T15:31:58;2.80;;;2.10;;
26435;SDS011;15351;52.408;16.826;2023-04-24T15:34:33;3.90;;;2.20;;
26435;SDS011;15351;52.408;16.826;2023-04-24T15:37:10;3.70;;;2.20;;
26435;SDS011;15351;52.408;16.826;2023-04-24T15:39:41;2.50;;;2.20;;
26435;SDS011;15351;52.408;16.826;2023-04-24T15:42:15;2.70;;;2.20;;
26435;SDS011;15351;52.408;16.826;2023-04-24T15:44:42;4.00;;;2.90;;
26435;SDS011;15351;52.408;16.826;2023-04-24T15:47:08;4.20;;;2.80;;
26435;SDS011;15351;52.408;16.826;2023-04-24T15:49:35;5.50;;;3.00;;
26435;SDS011;15351;52.408;16.826;2023-04-24T15:52:04;5.80;;;2.40;;
26435;SDS011;15351;52.408;16.826;2023-04-24T15:54:33;3.40;;;2.10;;
26435;SDS011;15351;52.408;16.826;2023-04-24T16:00:20;5.70;;;2.30;;
26435;SDS011;15351;52.408;16.826;2023-04-24T16:03:03;4.30;;;2.20;;
26435;SDS011;15351;52.408;16.826;2023-04-24T16:05:34;3.20;;;2.20;;
26435;SDS011;15351;52.408;16.826;2023-04-24T16:10:43;4.70;;;2.40;;
26435;SDS011;15351;52.408;16.826;2023-04-24T16:13:15;3.60;;;2.60;;
26435;SDS011;15351;52.408;16.826;2023-04-24T16:15:47;4.70;;;2.70;;
26435;SDS011;15351;52.408;16.826;2023-04-24T16:18:43;4.10;;;2.80;;
26435;SDS011;15351;52.408;16.826;2023-04-24T16:23:59;4.30;;;2.90;;
26435;SDS011;15351;52.408;16.826;2023-04-24T16:27:07;3.50;;;2.90;;
26435;SDS011;15351;52.408;16.826;2023-04-24T16:30:03;4.30;;;3.00;;
26435;SDS011;15351;52.408;16.826;2023-04-24T16:32:45;4.70;;;2.70;;
26435;SDS011;15351;52.408;16.826;2023-04-24T16:35:25;3.50;;;2.00;;
26435;SDS011;15351;52.408;16.826;2023-04-24T16:38:02;2.80;;;1.80;;
26435;SDS011;15351;52.408;16.826;2023-04-24T16:40:29;2.90;;;1.70;;
26435;SDS011;15351;52.408;16.826;2023-04-24T16:43:04;2.80;;;1.50;;
26435;SDS011;15351;52.408;16.826;2023-04-24T16:45:52;2.40;;;1.40;;
26435;SDS011;15351;52.408;16.826;2023-04-24T16:48:45;1.60;;;1.30;;
26435;SDS011;15351;52.408;16.826;2023-04-24T16:51:34;3.00;;;1.60;;
26435;SDS011;15351;52.408;16.826;2023-04-24T16:54:15;2.80;;;1.80;;
26435;SDS011;15351;52.408;16.826;2023-04-24T16:57:09;4.30;;;2.50;;
26435;SDS011;15351;52.408;16.826;2023-04-24T16:59:50;5.50;;;2.80;;
26435;SDS011;15351;52.408;16.826;2023-04-24T17:02:49;7.00;;;3.80;;
26435;SDS011;15351;52.408;16.826;2023-04-24T17:05:22;5.90;;;3.90;;
26435;SDS011;15351;52.408;16.826;2023-04-24T17:08:02;5.70;;;4.00;;
26435;SDS011;15351;52.408;16.826;2023-04-24T17:10:29;5.80;;;3.80;;
26435;SDS011;15351;52.408;16.826;2023-04-24T17:12:55;5.50;;;3.90;;
26435;SDS011;15351;52.408;16.826;2023-04-24T17:15:22;5.80;;;3.80;;
26435;SDS011;15351;52.408;16.826;2023-04-24T17:18:05;5.70;;;3.60;;
26435;SDS011;15351;52.408;16.826;2023-04-24T17:20:32;6.40;;;4.20;;
26435;SDS011;15351;52.408;16.826;2023-04-24T17:23:22;8.30;;;5.10;;
26435;SDS011;15351;52.408;16.826;2023-04-24T17:26:05;37.90;;;23.20;;
26435;SDS011;15351;52.408;16.826;2023-04-24T17:28:45;12.10;;;8.60;;
26435;SDS011;15351;52.408;16.826;2023-04-24T17:31:34;7.50;;;4.90;;
26435;SDS011;15351;52.408;16.826;2023-04-24T17:34:11;5.10;;;4.00;;
26435;SDS011;15351;52.408;16.826;2023-04-24T17:36:37;6.30;;;4.30;;
26435;SDS011;15351;52.408;16.826;2023-04-24T17:39:04;6.10;;;4.60;;
26435;SDS011;15351;52.408;16.826;2023-04-24T17:41:44;7.20;;;4.70;;
26435;SDS011;15351;52.408;16.826;2023-04-24T17:44:37;5.90;;;4.20;;
26435;SDS011;15351;52.408;16.826;2023-04-24T17:47:30;6.00;;;4.10;;
26435;SDS011;15351;52.408;16.826;2023-04-24T17:49:56;5.30;;;3.80;;
26435;SDS011;15351;52.408;16.826;2023-04-24T17:52:27;5.90;;;3.50;;
26435;SDS011;15351;52.408;16.826;2023-04-24T17:54:53;4.90;;;3.30;;
26435;SDS011;15351;52.408;16.826;2023-04-24T17:57:24;4.40;;;3.20;;